UBBBUTAK

Guest
Details From UBBB - HEYDAR ALIYEV
To UTAK - TURKMENBASHI
Flight Number -
Tags generated
Created
Modified
Stats Distance 138 nm / 255 km
Max Altitude 15,400 ft / 4,694 m
Waypoints 3
Social Downloads 0
Likes 0
Share VATSIM

Download

Looking for another format? Having issues loading an existing format? Contact us
Advertisement - Login to hide

Notes

Basic altitude profile: - Ascent Rate: 2500ft/min - Ascent Speed: 250kts - Cruise Altitude: 35000ft - Cruise Speed: 420kts - Descent Rate: 1500ft/min - Descent Speed: 250kts Options: - Use NATs: yes - Use PACOTS: yes - Use low airways: yes - Use high airways: yes

Route

UBBB TITAP UTAK

ID Type Via Altitude Latitude Longitude Leg Dist Tot Dist Heading (true) Name
O UBBB APT - 0 ft / 0 m 40.47000˚ 50.05208˚ - 0 nm - HEYDAR ALIYEV
TITAP FIX - 15,400 ft / 4,694 m 40.40000˚ 51.05583˚ 46 nm 46 nm 95° / 96° -
O UTAK APT - 0 ft / 0 m 40.06347˚ 53.00722˚ 91 nm 137 nm 102° / 103° TURKMENBASHI

Altitude Profile

Advertisement - Login to hide

UBBB

Details ICAO UBBB (GYD)
Name HEYDAR ALIYEV
Region Azerbiajan
Timezone Asia/Baku (UTC+4.0)
Stats Elevation 10 ft / 3 m (AMSL)
Location 40.470000° 50.052083°
Runways 2
Magnetic Variation 6.235° E

METAR

UBBB 171730Z 12009KT 9999 OVC013 10/08 Q1024 R16/190065 R17/290065 NOSIG

Decode

TAF

TAF UBBB 171711Z 1718/1818 12008KT 6000 SCT012 OVC030 TX11/1811Z TN06/1802Z TEMPO 1718/1724 3000 -DZ BR BKN006 BECMG 1806/1808 17016KT

Decode

Departure Runways

ID Width Length Bearing (true) Bearing (mag) Surface Threshold Offset Overrun Length
16 197 ft / 60 m 9,110 ft / 2,777 m 159.17° 152.94° Asphalt 0 ft / 0 m 1,312 ft / 400 m
18 167 ft / 51 m 10,947 ft / 3,337 m 180.00° 173.77° Concrete 0 ft / 0 m 1,312 ft / 400 m
34 197 ft / 60 m 9,110 ft / 2,777 m 339.18° 332.95° Asphalt 0 ft / 0 m 656 ft / 200 m
36 167 ft / 51 m 10,947 ft / 3,337 m 0.00° 353.77° Concrete 444 ft / 135 m 541 ft / 165 m

UTAK

Details ICAO UTAK (KRW)
Name TURKMENBASHI
Region Tajikistan, Turkmenistan and Uzbekistan
Timezone Asia/Ashgabat (UTC+5.0)
Stats Elevation 279 ft / 85 m (AMSL)
Location 40.063472° 53.007222°
Runways 1
Magnetic Variation 6.001° E

METAR

UTAK 171700Z 12006KT CAVOK M01/M04 Q1026 R16R/CLRD70 NOSIG

Decode

TAF

TAF UTAK 171030Z 1712/1812 10014KT 5000 SCT008 BKN100 TM00/1718Z 530006 TEMPO 1712/1715 17014KT BKN006 TEMPO 1715/1719 VRB04KT 2500 BR BKN002 TEMPO 1719/1805 0500 FG VV001 BECMG 1805/1806 09016KT 6000 BKN008 BKN100

Decode

Destination Runways

ID Width Length Bearing (true) Bearing (mag) Surface Threshold Offset Overrun Length
16 144 ft / 44 m 8,221 ft / 2,506 m 166.91° 160.91° Concrete 0 ft / 0 m 0 ft / 0 m
34 144 ft / 44 m 8,221 ft / 2,506 m 346.91° 340.91° Concrete 0 ft / 0 m 0 ft / 0 m